createdAt,value
2023-02-28T00:00:26.389Z,23.52
2023-02-28T00:04:54.009Z,24.70
2023-02-28T00:08:56.146Z,24.20
2023-02-28T00:13:05.092Z,24.38
2023-02-28T00:17:07.092Z,26.08
2023-02-28T00:21:09.962Z,24.98
2023-02-28T00:25:14.180Z,25.60
2023-02-28T00:29:16.338Z,24.90
2023-02-28T00:33:20.105Z,26.10
2023-02-28T00:37:23.255Z,26.48
2023-02-28T00:41:25.390Z,25.25
2023-02-28T00:45:27.537Z,26.75
2023-02-28T00:49:29.387Z,26.45
2023-02-28T00:53:33.480Z,27.83
2023-02-28T01:02:20.880Z,29.65
2023-02-28T01:06:22.974Z,29.75
2023-02-28T01:10:26.352Z,29.60
2023-02-28T01:14:28.426Z,28.50
2023-02-28T01:18:30.588Z,28.42
2023-02-28T01:22:32.797Z,27.00
2023-02-28T01:26:34.952Z,26.48
2023-02-28T01:30:37.427Z,26.88
2023-02-28T01:34:39.510Z,28.83
2023-02-28T01:38:41.758Z,26.80
2023-02-28T01:42:43.831Z,25.92
2023-02-28T01:46:45.860Z,25.83
2023-02-28T01:50:50.628Z,25.15
2023-02-28T01:54:56.724Z,26.58
2023-02-28T01:58:58.765Z,26.33
2023-02-28T02:03:07.261Z,25.35
2023-02-28T02:07:13.109Z,30.33
2023-02-28T02:11:20.055Z,35.47
2023-02-28T02:15:40.562Z,32.40
2023-02-28T02:20:02.733Z,31.20
2023-02-28T02:24:18.215Z,30.05
2023-02-28T02:28:53.304Z,28.98
2023-02-28T02:33:10.231Z,29.17
2023-02-28T02:37:15.161Z,28.40
2023-02-28T02:41:29.204Z,28.52
2023-02-28T02:45:44.713Z,27.92
2023-02-28T02:49:53.254Z,27.02
2023-02-28T02:54:02.884Z,26.48
2023-02-28T02:58:11.219Z,25.50
2023-02-28T03:02:16.449Z,24.20
2023-02-28T03:06:18.615Z,26.65
2023-02-28T03:10:36.915Z,23.88
2023-02-28T03:14:53.676Z,25.02
2023-02-28T03:19:18.362Z,24.55
2023-02-28T03:23:42.535Z,29.10
2023-02-28T03:28:06.367Z,74.03
2023-02-28T03:32:25.349Z,25.77
2023-02-28T03:36:31.113Z,24.63
2023-02-28T03:40:35.924Z,26.75
2023-02-28T03:44:45.464Z,23.30
2023-02-28T03:48:58.584Z,27.55
2023-02-28T03:53:20.540Z,26.13
2023-02-28T03:57:41.067Z,23.63
2023-02-28T04:01:45.909Z,25.30
2023-02-28T04:05:54.460Z,25.13
2023-02-28T04:09:57.113Z,25.90
2023-02-28T04:13:59.140Z,23.77
2023-02-28T04:18:01.629Z,23.70
2023-02-28T04:22:04.161Z,23.77
2023-02-28T04:26:06.969Z,21.70
2023-02-28T04:30:09.815Z,23.85
2023-02-28T04:34:11.816Z,24.98
2023-02-28T04:38:13.874Z,24.42
2023-02-28T04:42:16.318Z,23.70
2023-02-28T04:46:19.348Z,23.40
2023-02-28T04:50:21.385Z,25.40
2023-02-28T04:54:23.432Z,24.35
2023-02-28T04:58:26.388Z,22.60
2023-02-28T05:02:28.048Z,23.48
2023-02-28T05:06:32.379Z,26.90
2023-02-28T05:10:34.255Z,36.53
2023-02-28T05:14:36.232Z,34.60
2023-02-28T05:18:38.742Z,37.38
2023-02-28T05:22:41.615Z,31.30
2023-02-28T05:26:44.101Z,28.15
2023-02-28T05:30:46.391Z,28.25
2023-02-28T05:34:48.101Z,29.00
2023-02-28T05:38:51.187Z,32.10
2023-02-28T05:42:53.163Z,33.95
2023-02-28T05:46:55.405Z,31.50
2023-02-28T05:50:58.850Z,34.38
2023-02-28T05:55:00.569Z,37.97
2023-02-28T05:59:02.569Z,37.92
2023-02-28T06:03:04.768Z,34.65
2023-02-28T06:07:06.838Z,37.15
2023-02-28T06:11:08.788Z,35.83
2023-02-28T06:15:15.570Z,37.50
2023-02-28T06:19:18.077Z,27.17
2023-02-28T06:23:19.998Z,36.05
2023-02-28T06:27:21.610Z,34.60
2023-02-28T06:31:24.233Z,33.55
2023-02-28T06:35:26.478Z,38.03
2023-02-28T06:39:29.959Z,33.00
2023-02-28T06:43:34.948Z,32.47
2023-02-28T06:47:38.367Z,31.20
2023-02-28T06:51:42.642Z,28.98
2023-02-28T06:55:44.863Z,30.70
2023-02-28T06:59:47.008Z,24.98
2023-02-28T07:03:53.065Z,21.77
2023-02-28T07:07:55.054Z,21.15
2023-02-28T07:11:57.285Z,20.20
2023-02-28T07:16:01.728Z,19.00
2023-02-28T07:20:05.513Z,17.52
2023-02-28T07:24:07.587Z,16.30
2023-02-28T07:28:09.487Z,14.10
2023-02-28T07:32:11.618Z,13.18
2023-02-28T07:36:18.060Z,14.90
2023-02-28T07:40:20.217Z,11.30
2023-02-28T07:44:22.140Z,11.55
2023-02-28T07:48:24.188Z,12.35
2023-02-28T07:52:26.286Z,8.15
2023-02-28T07:56:28.680Z,8.10
2023-02-28T08:00:32.785Z,10.43
2023-02-28T08:04:35.055Z,10.65
2023-02-28T08:08:37.015Z,9.55
2023-02-28T08:12:38.994Z,10.10
2023-02-28T08:16:40.981Z,10.13
2023-02-28T08:20:43.068Z,10.40
2023-02-28T08:24:45.396Z,11.18
2023-02-28T08:28:47.414Z,12.20
2023-02-28T08:32:49.451Z,11.13
2023-02-28T08:36:51.133Z,10.55
2023-02-28T08:41:00.395Z,12.38
2023-02-28T08:45:02.420Z,11.82
2023-02-28T08:49:04.512Z,11.93
2023-02-28T08:53:06.426Z,12.50
2023-02-28T08:57:08.342Z,12.63
2023-02-28T09:01:13.130Z,13.70
2023-02-28T09:05:15.149Z,11.32
2023-02-28T09:09:17.136Z,13.02
2023-02-28T09:13:20.051Z,13.10
2023-02-28T09:17:22.052Z,11.80
2023-02-28T09:21:24.250Z,11.38
2023-02-28T09:25:26.329Z,13.45
2023-02-28T09:29:28.292Z,12.18
2023-02-28T09:33:30.278Z,11.80
2023-02-28T09:37:32.217Z,11.27
2023-02-28T09:41:51.421Z,11.07
2023-02-28T09:46:05.377Z,10.93
2023-02-28T09:50:24.252Z,11.52
2023-02-28T09:54:30.408Z,11.77
2023-02-28T09:58:41.144Z,12.82
2023-02-28T10:03:28.072Z,12.82
2023-02-28T10:07:48.653Z,12.73
2023-02-28T10:11:55.194Z,13.18
2023-02-28T10:20:30.939Z,14.95
2023-02-28T10:24:44.269Z,14.23
2023-02-28T10:28:46.560Z,14.05
2023-02-28T10:32:54.764Z,11.70
2023-02-28T10:41:10.503Z,13.25
2023-02-28T10:45:18.073Z,12.65
2023-02-28T10:49:30.254Z,12.90
2023-02-28T10:53:52.696Z,12.68
2023-02-28T10:57:59.061Z,14.73
2023-02-28T11:02:01.474Z,13.30
2023-02-28T11:06:09.790Z,12.48
2023-02-28T11:14:26.970Z,14.05
2023-02-28T11:18:35.154Z,13.80
2023-02-28T11:22:45.483Z,12.88
2023-02-28T11:26:52.234Z,13.38
2023-02-28T11:31:17.230Z,14.23
2023-02-28T11:35:30.601Z,14.07
2023-02-28T11:39:35.425Z,15.38
2023-02-28T11:44:09.334Z,15.13
2023-02-28T11:48:20.245Z,14.95
2023-02-28T11:52:37.469Z,16.60
2023-02-28T11:56:48.632Z,16.67
2023-02-28T12:00:56.694Z,15.95
2023-02-28T12:05:24.532Z,15.18
2023-02-28T12:09:42.096Z,14.32
2023-02-28T12:14:14.425Z,15.65
2023-02-28T12:18:24.216Z,16.13
2023-02-28T12:22:43.296Z,16.25
2023-02-28T12:26:47.464Z,15.13
2023-02-28T12:31:27.928Z,15.85
2023-02-28T12:35:38.875Z,15.35
2023-02-28T12:39:50.527Z,15.88
2023-02-28T12:44:01.446Z,14.45
2023-02-28T12:48:07.287Z,15.55
2023-02-28T12:52:13.629Z,16.15
2023-02-28T12:56:24.834Z,14.45
2023-02-28T13:00:34.509Z,15.38
2023-02-28T13:04:55.143Z,14.48
2023-02-28T13:09:13.470Z,15.07
2023-02-28T13:13:18.697Z,17.60
2023-02-28T13:17:22.925Z,19.50
2023-02-28T13:21:31.138Z,17.42
2023-02-28T13:25:42.459Z,15.23
2023-02-28T13:29:45.495Z,15.27
2023-02-28T13:34:03.293Z,15.00
2023-02-28T13:38:16.969Z,14.65
2023-02-28T13:42:22.243Z,15.20
2023-02-28T13:46:24.465Z,18.83
2023-02-28T13:50:26.497Z,17.75
2023-02-28T13:54:46.721Z,15.15
2023-02-28T13:58:59.537Z,15.65
2023-02-28T14:03:12.687Z,16.02
2023-02-28T14:07:22.181Z,22.00
2023-02-28T14:11:34.047Z,14.32
2023-02-28T14:16:01.769Z,14.25
2023-02-28T14:20:04.685Z,15.40
2023-02-28T14:24:21.630Z,16.00
2023-02-28T14:28:40.597Z,15.55
2023-02-28T14:33:16.549Z,14.85
2023-02-28T14:37:26.883Z,13.32
2023-02-28T14:41:37.986Z,18.02
2023-02-28T14:45:40.202Z,14.77
2023-02-28T14:49:47.722Z,21.38
2023-02-28T14:53:57.057Z,17.87
2023-02-28T14:58:07.368Z,16.50
2023-02-28T15:02:27.093Z,17.17
2023-02-28T15:06:31.473Z,16.42
2023-02-28T15:10:34.980Z,15.98
2023-02-28T15:14:39.277Z,15.63
2023-02-28T15:19:00.459Z,14.05
2023-02-28T15:23:03.058Z,13.77
2023-02-28T15:27:10.832Z,16.75
2023-02-28T15:31:56.636Z,19.25
2023-02-28T15:36:15.448Z,21.52
2023-02-28T15:40:25.071Z,19.83
2023-02-28T15:44:30.932Z,19.27
2023-02-28T15:48:55.964Z,18.55
2023-02-28T15:52:58.580Z,15.10
2023-02-28T15:57:09.538Z,17.83
2023-02-28T16:01:20.456Z,16.92
2023-02-28T16:05:32.741Z,15.05
2023-02-28T16:09:35.441Z,17.95
2023-02-28T16:13:38.276Z,16.75
2023-02-28T16:17:40.482Z,17.25
2023-02-28T16:21:42.557Z,17.13
2023-02-28T16:25:47.261Z,18.77
2023-02-28T16:29:49.586Z,17.90
2023-02-28T16:33:51.821Z,18.55
2023-02-28T16:37:54.896Z,17.85
2023-02-28T16:41:56.957Z,16.80
2023-02-28T16:46:01.327Z,18.10
2023-02-28T16:50:14.071Z,18.95
2023-02-28T16:54:15.941Z,18.27
2023-02-28T16:58:18.629Z,19.17
2023-02-28T17:02:21.185Z,20.00
2023-02-28T17:06:26.143Z,18.23
2023-02-28T17:10:28.369Z,22.23
2023-02-28T17:14:30.609Z,22.58
2023-02-28T17:18:34.803Z,24.67
2023-02-28T17:22:36.937Z,30.75
2023-02-28T17:26:40.810Z,27.70
2023-02-28T17:30:48.196Z,26.02
2023-02-28T17:34:50.485Z,26.63
2023-02-28T17:38:54.277Z,25.20
2023-02-28T17:42:57.756Z,26.48
2023-02-28T17:47:00.141Z,27.38
2023-02-28T17:51:02.178Z,29.20
2023-02-28T17:55:05.252Z,28.98
2023-02-28T17:59:10.865Z,31.35
2023-02-28T18:03:14.412Z,28.80
2023-02-28T18:07:16.665Z,28.30
2023-02-28T18:11:20.550Z,26.17
2023-02-28T18:15:22.857Z,26.65
2023-02-28T18:19:25.054Z,27.10
2023-02-28T18:23:27.137Z,27.15
2023-02-28T18:27:29.363Z,26.92
2023-02-28T18:31:34.772Z,26.17
2023-02-28T18:35:37.253Z,27.45
2023-02-28T18:39:39.773Z,28.17
2023-02-28T18:43:42.108Z,27.10
2023-02-28T18:47:44.047Z,33.13
2023-02-28T18:51:46.799Z,42.35
2023-02-28T18:55:48.793Z,47.72
2023-02-28T18:59:50.983Z,55.80
2023-02-28T19:03:52.992Z,44.97
2023-02-28T19:07:55.062Z,48.75
2023-02-28T19:11:57.685Z,45.53
2023-02-28T19:16:04.774Z,52.10
2023-02-28T19:20:08.248Z,60.90
2023-02-28T19:24:10.398Z,139.13
2023-02-28T19:28:12.985Z,125.15
2023-02-28T19:32:15.846Z,137.77
2023-02-28T19:36:17.827Z,124.82
2023-02-28T19:40:19.985Z,127.43
2023-02-28T19:44:21.896Z,109.57
2023-02-28T19:48:25.188Z,103.28
2023-02-28T19:52:27.263Z,84.60
2023-02-28T19:56:29.291Z,76.40
2023-02-28T20:00:30.999Z,79.93
2023-02-28T20:04:33.109Z,70.00
2023-02-28T20:08:36.823Z,73.93
2023-02-28T20:12:38.998Z,70.88
2023-02-28T20:16:41.420Z,72.35
2023-02-28T20:20:43.532Z,74.07
2023-02-28T20:24:46.261Z,70.10
2023-02-28T20:28:48.383Z,66.53
2023-02-28T20:32:50.300Z,67.88
2023-02-28T20:36:52.511Z,73.28
2023-02-28T20:40:56.321Z,79.75
2023-02-28T20:44:58.378Z,78.15
2023-02-28T20:49:00.378Z,82.38
2023-02-28T20:53:02.419Z,74.35
2023-02-28T20:57:04.335Z,78.80
2023-02-28T21:01:18.386Z,78.35
2023-02-28T21:05:20.429Z,79.28
2023-02-28T21:09:22.409Z,79.35
2023-02-28T21:13:24.378Z,76.15
2023-02-28T21:17:28.109Z,78.05
2023-02-28T21:21:32.448Z,79.05
2023-02-28T21:25:34.488Z,88.38
2023-02-28T21:29:36.541Z,95.38
2023-02-28T21:33:38.826Z,84.07
2023-02-28T21:37:40.656Z,82.43
2023-02-28T21:41:42.758Z,80.82
2023-02-28T21:45:44.666Z,80.03
2023-02-28T21:49:46.669Z,74.82
2023-02-28T21:53:49.841Z,77.18
2023-02-28T21:57:51.882Z,76.70
2023-02-28T22:01:55.395Z,80.20
2023-02-28T22:05:57.503Z,77.82
2023-02-28T22:09:59.168Z,80.63
2023-02-28T22:14:01.661Z,83.88
2023-02-28T22:18:03.768Z,90.32
2023-02-28T22:22:05.748Z,80.10
2023-02-28T22:26:10.556Z,81.03
2023-02-28T22:30:12.955Z,83.43
2023-02-28T22:34:14.939Z,85.22
2023-02-28T22:38:17.010Z,85.30
2023-02-28T22:42:18.979Z,78.03
2023-02-28T22:46:22.791Z,82.05
2023-02-28T22:50:25.582Z,83.50
2023-02-28T22:54:27.686Z,79.75
2023-02-28T22:58:30.278Z,78.05
2023-02-28T23:02:32.837Z,76.05
2023-02-28T23:06:41.974Z,76.63
2023-02-28T23:10:43.994Z,72.93
2023-02-28T23:14:46.002Z,78.53
2023-02-28T23:18:48.137Z,81.05
2023-02-28T23:22:50.570Z,85.75
2023-02-28T23:26:54.774Z,81.20
2023-02-28T23:31:04.471Z,97.53
2023-02-28T23:35:10.981Z,95.28
2023-02-28T23:39:16.139Z,83.40
2023-02-28T23:43:18.774Z,86.03
2023-02-28T23:47:20.919Z,85.45
2023-02-28T23:51:22.995Z,76.10
2023-02-28T23:55:25.925Z,78.22
2023-02-28T23:59:28.234Z,78.05
